createdAt,value
2018-02-25T00:02:06.165Z,-3.99
2018-02-25T00:04:32.494Z,-4.11
2018-02-25T00:06:58.994Z,-4.04
2018-02-25T00:09:25.299Z,-3.99
2018-02-25T00:11:51.896Z,-4.01
2018-02-25T00:14:18.161Z,-4.10
2018-02-25T00:16:44.517Z,-4.07
2018-02-25T00:19:10.904Z,-4.06
2018-02-25T00:21:37.180Z,-4.02
2018-02-25T00:24:03.873Z,-4.02
2018-02-25T00:26:30.147Z,-4.05
2018-02-25T00:28:56.479Z,-4.09
2018-02-25T00:31:22.863Z,-4.11
2018-02-25T00:33:49.086Z,-4.12
2018-02-25T00:36:15.675Z,-4.18
2018-02-25T00:38:41.958Z,-4.17
2018-02-25T00:41:08.262Z,-4.22
2018-02-25T00:43:34.778Z,-4.31
2018-02-25T00:46:01.100Z,-4.32
2018-02-25T00:48:27.720Z,-4.34
2018-02-25T00:50:53.973Z,-4.35
2018-02-25T00:53:20.276Z,-4.35
2018-02-25T00:55:46.623Z,-4.40
2018-02-25T00:58:12.895Z,-4.44
2018-02-25T01:00:39.522Z,-4.49
2018-02-25T01:03:05.795Z,-4.55
2018-02-25T01:05:32.068Z,-4.66
2018-02-25T01:07:58.528Z,-4.64
2018-02-25T01:10:24.791Z,-4.65
2018-02-25T01:12:51.406Z,-4.60
2018-02-25T01:15:17.695Z,-4.63
2018-02-25T01:17:43.968Z,-4.60
2018-02-25T01:20:10.463Z,-4.66
2018-02-25T01:22:36.774Z,-4.67
2018-02-25T01:25:03.325Z,-4.60
2018-02-25T01:27:29.576Z,-4.63
2018-02-25T01:29:55.873Z,-4.60
2018-02-25T01:32:22.416Z,-4.65
2018-02-25T01:34:48.652Z,-4.68
2018-02-25T01:37:15.192Z,-4.68
2018-02-25T01:39:41.455Z,-4.67
2018-02-25T01:42:07.696Z,-4.72
2018-02-25T01:44:34.313Z,-4.73
2018-02-25T01:47:00.535Z,-4.73
2018-02-25T01:49:26.988Z,-4.79
2018-02-25T01:51:53.284Z,-4.80
2018-02-25T01:54:19.505Z,-4.86
2018-02-25T01:56:46.109Z,-4.88
2018-02-25T01:59:12.392Z,-4.92
2018-02-25T02:01:38.798Z,-4.96
2018-02-25T02:04:05.244Z,-4.93
2018-02-25T02:06:31.584Z,-4.96
2018-02-25T02:08:58.139Z,-4.99
2018-02-25T02:11:24.363Z,-5.04
2018-02-25T02:13:50.818Z,-5.10
2018-02-25T02:16:17.075Z,-5.18
2018-02-25T02:18:43.306Z,-5.18
2018-02-25T02:21:09.988Z,-5.21
2018-02-25T02:23:36.261Z,-5.25
2018-02-25T02:26:02.679Z,-5.23
2018-02-25T02:28:29.012Z,-5.26
2018-02-25T02:30:55.339Z,-5.22
2018-02-25T02:33:21.948Z,-5.30
2018-02-25T02:35:48.235Z,-5.45
2018-02-25T02:38:14.567Z,-5.56
2018-02-25T02:40:40.935Z,-5.51
2018-02-25T02:43:07.228Z,-5.52
2018-02-25T02:45:33.854Z,-5.54
2018-02-25T02:48:00.126Z,-5.70
2018-02-25T02:50:26.527Z,-5.69
2018-02-25T02:52:52.921Z,-5.66
2018-02-25T02:55:19.172Z,-5.71
2018-02-25T02:57:45.817Z,-5.80
2018-02-25T03:00:12.080Z,-5.83
2018-02-25T03:02:39.672Z,-5.82
2018-02-25T03:05:05.993Z,-5.84
2018-02-25T03:07:32.284Z,-5.89
2018-02-25T03:09:58.733Z,-5.94
2018-02-25T03:12:24.963Z,-5.86
2018-02-25T03:14:51.572Z,-5.85
2018-02-25T03:17:17.832Z,-5.99
2018-02-25T03:19:44.097Z,-5.95
2018-02-25T03:22:10.535Z,-5.95
2018-02-25T03:24:36.811Z,-5.97
2018-02-25T03:27:03.315Z,-5.95
2018-02-25T03:29:29.656Z,-5.91
2018-02-25T03:31:55.899Z,-5.96
2018-02-25T03:34:22.456Z,-5.96
2018-02-25T03:36:48.728Z,-5.92
2018-02-25T03:39:15.263Z,-5.93
2018-02-25T03:41:41.536Z,-5.96
2018-02-25T03:44:07.775Z,-5.97
2018-02-25T03:46:34.324Z,-5.98
2018-02-25T03:49:00.557Z,-5.98
2018-02-25T03:51:27.106Z,-5.97
2018-02-25T03:53:53.359Z,-5.97
2018-02-25T03:56:19.639Z,-5.98
2018-02-25T03:58:46.197Z,-6.03
2018-02-25T04:01:12.431Z,-6.12
2018-02-25T04:03:38.837Z,-6.11
2018-02-25T04:06:05.515Z,-6.14
2018-02-25T04:08:31.767Z,-6.18
2018-02-25T04:10:58.295Z,-6.19
2018-02-25T04:13:24.560Z,-6.15
2018-02-25T04:15:51.034Z,-6.15
2018-02-25T04:18:17.331Z,-6.17
2018-02-25T04:20:43.611Z,-6.22
2018-02-25T04:23:10.044Z,-6.23
2018-02-25T04:25:36.294Z,-6.27
2018-02-25T04:28:02.628Z,-6.30
2018-02-25T04:30:28.975Z,-6.28
2018-02-25T04:32:55.347Z,-6.29
2018-02-25T04:35:21.967Z,-6.33
2018-02-25T04:37:48.220Z,-6.38
2018-02-25T04:40:14.566Z,-6.41
2018-02-25T04:42:40.943Z,-6.46
2018-02-25T04:45:07.191Z,-6.48
2018-02-25T04:47:33.820Z,-6.48
2018-02-25T04:50:00.085Z,-6.50
2018-02-25T04:52:26.352Z,-6.55
2018-02-25T04:54:52.754Z,-6.59
2018-02-25T04:57:19.005Z,-6.56
2018-02-25T04:59:45.503Z,-6.56
2018-02-25T05:02:11.780Z,-6.62
2018-02-25T05:04:38.036Z,-6.61
2018-02-25T05:07:04.664Z,-6.67
2018-02-25T05:09:30.915Z,-6.66
2018-02-25T05:11:57.484Z,-6.69
2018-02-25T05:14:23.763Z,-6.73
2018-02-25T05:16:50.032Z,-6.73
2018-02-25T05:19:16.572Z,-6.69
2018-02-25T05:21:42.790Z,-6.76
2018-02-25T05:24:09.320Z,-6.74
2018-02-25T05:26:35.581Z,-6.85
2018-02-25T05:29:01.896Z,-6.82
2018-02-25T05:31:28.500Z,-6.88
2018-02-25T05:33:54.780Z,-6.92
2018-02-25T05:36:21.188Z,-6.89
2018-02-25T05:38:47.456Z,-6.90
2018-02-25T05:41:13.703Z,-6.97
2018-02-25T05:43:40.271Z,-6.96
2018-02-25T05:46:06.516Z,-7.00
2018-02-25T05:48:32.895Z,-7.00
2018-02-25T05:50:59.298Z,-7.02
2018-02-25T05:53:25.549Z,-7.00
2018-02-25T05:55:52.151Z,-6.98
2018-02-25T05:58:18.405Z,-6.97
2018-02-25T06:00:44.742Z,-6.96
2018-02-25T06:03:11.108Z,-7.00
2018-02-25T06:05:37.388Z,-7.00
2018-02-25T06:08:04.043Z,-7.03
2018-02-25T06:10:30.321Z,-7.02
2018-02-25T06:12:56.624Z,-7.01
2018-02-25T06:15:23.016Z,-7.02
2018-02-25T06:17:49.330Z,-6.96
2018-02-25T06:20:15.966Z,-6.92
2018-02-25T06:22:42.255Z,-6.89
2018-02-25T06:25:08.564Z,-6.85
2018-02-25T06:27:34.980Z,-6.87
2018-02-25T06:30:01.262Z,-6.83
2018-02-25T06:32:27.883Z,-6.69
2018-02-25T06:34:54.216Z,-6.68
2018-02-25T06:37:20.498Z,-6.60
2018-02-25T06:39:46.903Z,-6.53
2018-02-25T06:42:13.144Z,-6.43
2018-02-25T06:44:39.808Z,-6.30
2018-02-25T06:47:06.047Z,-6.22
2018-02-25T06:49:32.323Z,-6.13
2018-02-25T06:51:58.744Z,-6.03
2018-02-25T06:54:25.009Z,-5.98
2018-02-25T06:56:51.264Z,-5.87
2018-02-25T06:59:17.496Z,-5.77
2018-02-25T07:01:43.746Z,-5.71
2018-02-25T07:04:10.002Z,-5.67
2018-02-25T07:06:36.261Z,-5.54
2018-02-25T07:09:02.592Z,-5.43
2018-02-25T07:11:28.898Z,-5.26
2018-02-25T07:13:55.140Z,-5.05
2018-02-25T07:16:21.476Z,-4.79
2018-02-25T07:18:47.727Z,-4.59
2018-02-25T07:21:13.949Z,-4.26
2018-02-25T07:23:40.240Z,-4.04
2018-02-25T07:26:06.480Z,-3.74
2018-02-25T07:28:32.731Z,-3.62
2018-02-25T07:30:58.973Z,-3.58
2018-02-25T07:33:25.259Z,-3.26
2018-02-25T07:35:51.507Z,-2.64
2018-02-25T07:38:17.794Z,-2.29
2018-02-25T07:40:44.042Z,-1.94
2018-02-25T07:43:10.335Z,-1.66
2018-02-25T07:45:36.591Z,-1.19
2018-02-25T07:48:02.863Z,-1.01
2018-02-25T07:50:29.139Z,-0.83
2018-02-25T07:52:55.376Z,-0.22
2018-02-25T07:55:21.629Z,0.47
2018-02-25T07:57:47.889Z,0.79
2018-02-25T08:00:14.152Z,1.47
2018-02-25T08:02:40.387Z,2.11
2018-02-25T08:05:06.643Z,3.26
2018-02-25T08:07:32.851Z,3.69
2018-02-25T08:09:59.087Z,2.81
2018-02-25T08:12:25.291Z,3.46
2018-02-25T08:14:51.525Z,3.33
2018-02-25T08:17:17.795Z,3.68
2018-02-25T08:19:44.037Z,3.86
2018-02-25T08:22:10.332Z,4.32
2018-02-25T08:24:36.556Z,4.52
2018-02-25T08:27:02.795Z,5.61
2018-02-25T08:29:29.030Z,5.93
2018-02-25T08:31:55.292Z,6.39
2018-02-25T08:34:21.522Z,6.66
2018-02-25T08:36:47.810Z,6.83
2018-02-25T08:39:14.028Z,7.50
2018-02-25T08:41:40.267Z,8.10
2018-02-25T08:44:06.540Z,8.41
2018-02-25T08:46:32.764Z,8.39
2018-02-25T08:48:59.016Z,8.51
2018-02-25T08:51:25.295Z,8.77
2018-02-25T08:53:51.556Z,8.81
2018-02-25T08:56:17.809Z,8.81
2018-02-25T08:58:44.434Z,8.87
2018-02-25T09:01:10.687Z,8.97
2018-02-25T09:03:36.917Z,8.98
2018-02-25T09:06:03.164Z,9.15
2018-02-25T09:08:29.546Z,9.19
2018-02-25T09:10:55.817Z,9.19
2018-02-25T09:13:22.044Z,9.29
2018-02-25T09:15:48.348Z,9.29
2018-02-25T09:18:14.586Z,9.49
2018-02-25T09:20:40.924Z,9.62
2018-02-25T09:23:07.173Z,9.87
2018-02-25T09:25:33.463Z,9.79
2018-02-25T09:27:59.713Z,9.76
2018-02-25T09:30:25.945Z,9.39
2018-02-25T09:32:52.204Z,9.34
2018-02-25T09:35:18.434Z,9.28
2018-02-25T09:37:44.690Z,9.22
2018-02-25T09:40:10.972Z,8.82
2018-02-25T09:42:37.213Z,8.84
2018-02-25T09:45:03.436Z,9.04
2018-02-25T09:47:29.674Z,9.25
2018-02-25T09:49:55.896Z,9.23
2018-02-25T09:52:22.151Z,9.05
2018-02-25T09:54:48.379Z,8.71
2018-02-25T09:57:14.596Z,8.45
2018-02-25T09:59:40.851Z,8.10
2018-02-25T10:02:07.080Z,7.81
2018-02-25T10:04:33.335Z,7.57
2018-02-25T10:06:59.559Z,7.98
2018-02-25T10:09:25.828Z,7.69
2018-02-25T10:11:52.056Z,7.58
2018-02-25T10:14:18.352Z,7.75
2018-02-25T10:16:44.583Z,7.59
2018-02-25T10:19:10.814Z,7.21
2018-02-25T10:21:37.103Z,7.27
2018-02-25T10:24:03.344Z,7.22
2018-02-25T10:26:29.583Z,7.35
2018-02-25T10:28:55.812Z,6.97
2018-02-25T10:31:22.077Z,7.05
2018-02-25T10:33:48.309Z,7.55
2018-02-25T10:36:14.592Z,8.03
2018-02-25T10:38:40.833Z,8.54
2018-02-25T10:41:07.091Z,9.15
2018-02-25T10:43:33.320Z,9.24
2018-02-25T10:45:59.561Z,9.05
2018-02-25T10:48:25.828Z,8.81
2018-02-25T10:50:52.063Z,8.74
2018-02-25T10:53:18.320Z,8.66
2018-02-25T10:55:44.544Z,8.42
2018-02-25T10:58:10.792Z,8.77
2018-02-25T11:00:37.019Z,9.21
2018-02-25T11:03:03.264Z,9.74
2018-02-25T11:05:29.532Z,9.91
2018-02-25T11:07:55.791Z,9.72
2018-02-25T11:10:22.068Z,9.98
2018-02-25T11:12:48.298Z,10.45
2018-02-25T11:15:14.556Z,11.14
2018-02-25T11:17:40.832Z,12.12
2018-02-25T11:20:07.111Z,13.18
2018-02-25T11:22:33.355Z,13.64
2018-02-25T11:24:59.608Z,14.08
2018-02-25T11:27:25.828Z,14.29
2018-02-25T11:29:52.092Z,15.14
2018-02-25T11:32:18.321Z,16.16
2018-02-25T11:34:44.550Z,16.67
2018-02-25T11:37:10.847Z,17.00
2018-02-25T11:39:37.075Z,17.29
2018-02-25T11:42:03.398Z,17.59
2018-02-25T11:44:29.676Z,18.31
2018-02-25T11:46:55.975Z,18.65
2018-02-25T11:49:22.218Z,18.84
2018-02-25T11:51:48.457Z,18.76
2018-02-25T11:54:14.683Z,19.16
2018-02-25T11:56:40.977Z,19.36
2018-02-25T11:59:07.235Z,19.80
2018-02-25T12:01:33.503Z,20.32
2018-02-25T12:03:59.796Z,20.53
2018-02-25T12:06:26.038Z,20.95
2018-02-25T12:08:52.343Z,21.41
2018-02-25T12:11:18.583Z,21.23
2018-02-25T12:13:45.280Z,21.57
2018-02-25T12:16:11.507Z,21.36
2018-02-25T12:18:37.760Z,21.54
2018-02-25T12:21:03.991Z,21.60
2018-02-25T12:23:30.207Z,21.76
2018-02-25T12:25:56.546Z,21.90
2018-02-25T12:28:22.926Z,21.42
2018-02-25T12:30:49.249Z,21.63
2018-02-25T12:33:15.536Z,21.55
2018-02-25T12:35:41.800Z,21.91
2018-02-25T12:38:08.036Z,22.27
2018-02-25T12:40:34.322Z,22.58
2018-02-25T12:43:00.642Z,23.00
2018-02-25T12:45:26.884Z,23.11
2018-02-25T12:47:53.094Z,23.22
2018-02-25T12:50:19.387Z,23.38
2018-02-25T12:52:45.715Z,23.55
2018-02-25T12:55:12.003Z,23.43
2018-02-25T12:57:38.280Z,24.21
2018-02-25T13:00:04.545Z,23.97
2018-02-25T13:02:30.834Z,24.26
2018-02-25T13:04:57.059Z,24.25
2018-02-25T13:07:23.327Z,24.12
2018-02-25T13:09:49.562Z,24.77
2018-02-25T13:12:15.815Z,24.86
2018-02-25T13:14:42.056Z,24.56
2018-02-25T13:17:08.271Z,24.18
2018-02-25T13:19:34.526Z,24.52
2018-02-25T13:22:00.773Z,24.66
2018-02-25T13:24:27.089Z,24.61
2018-02-25T13:26:53.292Z,24.25
2018-02-25T13:29:19.566Z,24.45
2018-02-25T13:31:45.779Z,24.50
2018-02-25T13:34:12.060Z,24.52
2018-02-25T13:36:38.328Z,24.87
2018-02-25T13:39:04.559Z,24.65
2018-02-25T13:41:30.804Z,24.22
2018-02-25T13:43:57.069Z,23.97
2018-02-25T13:46:23.312Z,24.15
2018-02-25T13:48:49.528Z,23.86
2018-02-25T13:51:15.789Z,23.52
2018-02-25T13:53:42.012Z,23.37
2018-02-25T13:56:08.268Z,23.43
2018-02-25T13:58:34.501Z,23.41
2018-02-25T14:01:00.739Z,22.82
2018-02-25T14:03:27.049Z,22.34
2018-02-25T14:05:53.272Z,22.12
2018-02-25T14:08:19.519Z,21.49
2018-02-25T14:10:46.728Z,20.76
2018-02-25T14:13:12.973Z,20.59
2018-02-25T14:15:39.192Z,20.05
2018-02-25T14:18:05.428Z,19.22
2018-02-25T14:20:31.745Z,18.73
2018-02-25T14:22:58.028Z,17.64
2018-02-25T14:25:24.260Z,17.10
2018-02-25T14:27:50.507Z,16.23
2018-02-25T14:30:16.780Z,15.13
2018-02-25T14:32:43.028Z,14.28
2018-02-25T14:35:09.318Z,13.85
2018-02-25T14:37:35.577Z,13.26
2018-02-25T14:40:01.868Z,12.56
2018-02-25T14:42:28.131Z,11.78
2018-02-25T14:44:54.373Z,11.30
2018-02-25T14:47:20.596Z,10.99
2018-02-25T14:49:46.886Z,10.77
2018-02-25T14:52:13.124Z,10.38
2018-02-25T14:54:39.385Z,10.09
2018-02-25T14:57:05.668Z,10.12
2018-02-25T14:59:31.986Z,10.25
2018-02-25T15:01:58.256Z,10.24
2018-02-25T15:04:24.472Z,10.29
2018-02-25T15:06:50.792Z,10.18
2018-02-25T15:09:17.006Z,10.14
2018-02-25T15:11:43.257Z,9.63
2018-02-25T15:14:09.487Z,9.66
2018-02-25T15:16:35.742Z,9.62
2018-02-25T15:19:02.021Z,9.06
2018-02-25T15:21:28.286Z,8.63
2018-02-25T15:23:54.546Z,8.23
2018-02-25T15:26:20.791Z,8.01
2018-02-25T15:28:47.102Z,7.55
2018-02-25T15:31:13.331Z,7.62
2018-02-25T15:33:39.632Z,7.79
2018-02-25T15:36:05.892Z,7.74
2018-02-25T15:38:32.240Z,6.75
2018-02-25T15:40:58.541Z,5.66
2018-02-25T15:43:24.767Z,4.73
2018-02-25T15:45:51.024Z,3.97
2018-02-25T15:48:17.246Z,3.25
2018-02-25T15:50:43.484Z,2.80
2018-02-25T15:53:09.723Z,2.37
2018-02-25T15:55:36.000Z,1.93
2018-02-25T15:58:02.260Z,1.51
2018-02-25T16:00:28.610Z,1.20
2018-02-25T16:02:56.040Z,0.95
2018-02-25T16:05:22.295Z,0.62
2018-02-25T16:07:48.555Z,0.55
2018-02-25T16:10:14.884Z,0.33
2018-02-25T16:12:41.151Z,0.20
2018-02-25T16:15:07.406Z,0.05
2018-02-25T16:17:33.677Z,-0.02
2018-02-25T16:19:59.952Z,-0.12
2018-02-25T16:22:26.255Z,-0.26
2018-02-25T16:24:52.523Z,-0.38
2018-02-25T16:27:18.837Z,-0.49
2018-02-25T16:29:45.095Z,-0.61
2018-02-25T16:32:11.347Z,-0.73
2018-02-25T16:34:37.605Z,-0.82
2018-02-25T16:37:03.876Z,-0.89
2018-02-25T16:39:30.204Z,-0.93
2018-02-25T16:41:56.448Z,-0.99
2018-02-25T16:44:22.717Z,-1.02
2018-02-25T16:46:49.097Z,-1.09
2018-02-25T16:49:15.377Z,-1.13
2018-02-25T16:51:41.599Z,-1.22
2018-02-25T16:54:07.856Z,-1.24
2018-02-25T16:56:34.112Z,-1.39
2018-02-25T16:59:00.392Z,-1.39
2018-02-25T17:01:26.640Z,-1.44
2018-02-25T17:03:52.883Z,-1.49
2018-02-25T17:06:19.137Z,-1.54
2018-02-25T17:08:45.367Z,-1.57
2018-02-25T17:11:11.631Z,-1.62
2018-02-25T17:13:37.907Z,-1.64
2018-02-25T17:16:04.173Z,-1.63
2018-02-25T17:18:30.438Z,-1.75
2018-02-25T17:20:56.713Z,-1.71
2018-02-25T17:23:22.980Z,-1.76
2018-02-25T17:25:49.288Z,-1.90
2018-02-25T17:28:15.601Z,-1.92
2018-02-25T17:30:41.872Z,-1.91
2018-02-25T17:33:08.129Z,-2.00
2018-02-25T17:35:34.372Z,-1.96
2018-02-25T17:38:00.631Z,-1.96
2018-02-25T17:40:26.867Z,-2.03
2018-02-25T17:42:53.221Z,-2.05
2018-02-25T17:45:19.527Z,-2.12
2018-02-25T17:47:45.772Z,-2.14
2018-02-25T17:50:12.032Z,-2.10
2018-02-25T17:52:38.403Z,-2.12
2018-02-25T17:55:04.647Z,-2.08
2018-02-25T17:57:30.903Z,-2.08
2018-02-25T17:59:57.482Z,-2.09
2018-02-25T18:02:23.717Z,-2.10
2018-02-25T18:04:49.952Z,-2.12
2018-02-25T18:07:16.224Z,-2.19
2018-02-25T18:09:42.579Z,-2.25
2018-02-25T18:12:08.831Z,-2.39
2018-02-25T18:14:35.080Z,-2.38
2018-02-25T18:17:01.352Z,-2.34
2018-02-25T18:19:27.686Z,-2.32
2018-02-25T18:21:54.024Z,-2.32
2018-02-25T18:24:20.270Z,-2.36
2018-02-25T18:26:46.516Z,-2.41
2018-02-25T18:29:12.859Z,-2.44
2018-02-25T18:31:39.143Z,-2.38
2018-02-25T18:34:05.472Z,-2.38
2018-02-25T18:36:31.709Z,-2.48
2018-02-25T18:38:58.666Z,-2.45
2018-02-25T18:41:24.955Z,-2.47
2018-02-25T18:43:51.208Z,-2.49
2018-02-25T18:46:17.448Z,-2.53
2018-02-25T18:48:43.796Z,-2.54
2018-02-25T18:51:10.272Z,-2.54
2018-02-25T18:53:36.577Z,-2.55
2018-02-25T18:56:02.857Z,-2.54
2018-02-25T18:58:29.360Z,-2.53
2018-02-25T19:00:55.745Z,-2.53
2018-02-25T19:03:22.124Z,-2.51
2018-02-25T19:05:48.488Z,-2.49
2018-02-25T19:08:14.820Z,-2.52
2018-02-25T19:10:41.287Z,-2.58
2018-02-25T19:13:07.576Z,-2.56
2018-02-25T19:15:33.858Z,-2.50
2018-02-25T19:18:00.449Z,-2.53
2018-02-25T19:20:26.697Z,-2.54
2018-02-25T19:22:52.995Z,-2.53
2018-02-25T19:25:19.482Z,-2.51
2018-02-25T19:27:45.720Z,-2.44
2018-02-25T19:30:12.360Z,-2.43
2018-02-25T19:32:38.637Z,-2.47
2018-02-25T19:35:05.051Z,-2.47
2018-02-25T19:37:37.367Z,-2.57
2018-02-25T19:40:03.668Z,-2.56
2018-02-25T19:42:29.993Z,-2.56
2018-02-25T19:44:56.472Z,-2.56
2018-02-25T19:47:22.699Z,-2.55
2018-02-25T19:49:49.005Z,-2.54
2018-02-25T19:54:50.824Z,-2.50
2018-02-25T19:57:17.250Z,-2.58
2018-02-25T19:59:43.505Z,-2.55
2018-02-25T20:02:09.802Z,-2.61
2018-02-25T20:04:36.533Z,-2.65
2018-02-25T20:07:02.788Z,-2.69
2018-02-25T20:09:29.236Z,-2.79
2018-02-25T20:11:55.827Z,-2.78
2018-02-25T20:14:22.173Z,-2.89
2018-02-25T20:16:48.629Z,-2.84
2018-02-25T20:19:14.927Z,-2.84
2018-02-25T20:21:41.168Z,-2.91
2018-02-25T20:24:07.407Z,-2.87
2018-02-25T20:26:33.623Z,-2.89
2018-02-25T20:28:59.913Z,-2.95
2018-02-25T20:31:26.162Z,-2.97
2018-02-25T20:33:52.448Z,-2.95
2018-02-25T20:36:18.677Z,-2.91
2018-02-25T20:38:44.935Z,-2.96
2018-02-25T20:41:11.204Z,-3.03
2018-02-25T20:43:37.484Z,-3.14
2018-02-25T20:46:03.764Z,-3.13
2018-02-25T20:48:30.009Z,-3.13
2018-02-25T20:50:56.451Z,-3.15
2018-02-25T20:53:22.684Z,-3.19
2018-02-25T20:55:48.939Z,-3.21
2018-02-25T20:58:15.263Z,-3.19
2018-02-25T21:00:41.736Z,-3.17
2018-02-25T21:03:07.989Z,-3.25
2018-02-25T21:05:34.215Z,-3.23
2018-02-25T21:08:00.484Z,-3.25
2018-02-25T21:10:26.753Z,-3.33
2018-02-25T21:12:53.007Z,-3.31
2018-02-25T21:15:19.253Z,-3.34
2018-02-25T21:17:45.542Z,-3.34
2018-02-25T21:20:12.209Z,-3.36
2018-02-25T21:22:38.483Z,-3.41
2018-02-25T21:25:04.758Z,-3.45
2018-02-25T21:27:31.137Z,-3.45
2018-02-25T21:30:06.695Z,-3.49
2018-02-25T21:32:32.969Z,-3.50
2018-02-25T21:34:59.232Z,-3.59
2018-02-25T21:37:25.509Z,-3.59
2018-02-25T21:39:51.771Z,-3.72
2018-02-25T21:42:18.167Z,-3.69
2018-02-25T21:44:44.426Z,-3.69
2018-02-25T21:47:10.656Z,-3.69
2018-02-25T21:49:37.076Z,-3.71
2018-02-25T21:52:03.424Z,-3.77
2018-02-25T21:54:35.711Z,-3.78
2018-02-25T21:57:08.169Z,-3.79
2018-02-25T21:59:40.424Z,-3.80
2018-02-25T22:02:12.839Z,-3.82
2018-02-25T22:04:39.075Z,-3.85
2018-02-25T22:07:05.364Z,-3.88
2018-02-25T22:09:31.657Z,-3.89
2018-02-25T22:11:57.929Z,-3.94
2018-02-25T22:14:24.343Z,-3.95
2018-02-25T22:16:50.631Z,-3.98
2018-02-25T22:19:16.895Z,-3.98
2018-02-25T22:21:43.172Z,-4.03
2018-02-25T22:24:09.514Z,-4.06
2018-02-25T22:26:35.878Z,-4.12
2018-02-25T22:29:02.325Z,-4.10
2018-02-25T22:31:28.564Z,-4.10
2018-02-25T22:33:54.940Z,-4.11
2018-02-25T22:36:21.199Z,-4.11
2018-02-25T22:38:47.464Z,-4.21
2018-02-25T22:41:13.784Z,-4.25
2018-02-25T22:43:40.042Z,-4.30
2018-02-25T22:46:06.579Z,-4.34
2018-02-25T22:48:32.836Z,-4.37
2018-02-25T22:50:59.095Z,-4.41
2018-02-25T22:53:25.501Z,-4.43
2018-02-25T22:55:51.771Z,-4.46
2018-02-25T22:58:18.231Z,-4.55
2018-02-25T23:00:44.521Z,-4.52
2018-02-25T23:03:10.804Z,-4.57
2018-02-25T23:05:37.107Z,-4.64
2018-02-25T23:08:03.380Z,-4.65
2018-02-25T23:10:29.730Z,-4.70
2018-02-25T23:12:56.016Z,-4.75
2018-02-25T23:15:22.666Z,-4.80
2018-02-25T23:17:48.939Z,-4.86
2018-02-25T23:20:15.195Z,-4.88
2018-02-25T23:22:41.481Z,-4.86
2018-02-25T23:25:07.737Z,-4.86
2018-02-25T23:27:34.002Z,-4.87
2018-02-25T23:30:00.277Z,-4.98
2018-02-25T23:32:26.511Z,-5.03
2018-02-25T23:34:52.775Z,-5.07
2018-02-25T23:37:19.011Z,-5.12
2018-02-25T23:39:45.368Z,-5.13
2018-02-25T23:42:11.608Z,-5.19
2018-02-25T23:44:37.837Z,-5.25
2018-02-25T23:47:04.112Z,-5.30
2018-02-25T23:49:30.420Z,-5.32
2018-02-25T23:51:56.691Z,-5.37
2018-02-25T23:54:22.927Z,-5.38
2018-02-25T23:56:49.199Z,-5.43
2018-02-25T23:59:15.612Z,-5.48
